createdAt,value
2023-05-06T00:01:15.214Z,86.16
2023-05-06T00:04:18.211Z,86.63
2023-05-06T00:07:21.796Z,86.72
2023-05-06T00:10:24.754Z,85.94
2023-05-06T00:13:27.571Z,86.05
2023-05-06T00:16:30.593Z,86.15
2023-05-06T00:19:33.570Z,86.19
2023-05-06T00:22:36.461Z,86.84
2023-05-06T00:25:39.204Z,87.22
2023-05-06T00:28:41.964Z,87.69
2023-05-06T00:31:45.522Z,88.18
2023-05-06T00:34:48.650Z,88.69
2023-05-06T00:38:17.222Z,88.80
2023-05-06T00:41:20.168Z,89.02
2023-05-06T00:44:23.236Z,89.22
2023-05-06T00:47:26.520Z,88.94
2023-05-06T00:50:29.999Z,89.07
2023-05-06T00:53:33.695Z,88.63
2023-05-06T00:56:36.726Z,90.37
2023-05-06T00:59:40.534Z,90.00
2023-05-06T01:02:47.432Z,90.13
2023-05-06T01:06:26.368Z,91.55
2023-05-06T01:09:50.146Z,92.36
2023-05-06T01:13:06.339Z,92.67
2023-05-06T01:16:12.871Z,93.29
2023-05-06T01:19:36.872Z,93.45
2023-05-06T01:22:39.931Z,94.12
2023-05-06T01:25:43.122Z,93.94
2023-05-06T01:28:45.986Z,93.51
2023-05-06T01:31:51.896Z,93.70
2023-05-06T01:35:12.507Z,93.69
2023-05-06T01:38:21.231Z,94.20
2023-05-06T01:41:25.733Z,93.95
2023-05-06T01:44:33.482Z,94.01
2023-05-06T01:47:38.144Z,95.38
2023-05-06T01:50:41.576Z,94.89
2023-05-06T01:53:44.566Z,94.56
2023-05-06T01:56:47.416Z,94.49
2023-05-06T01:59:51.022Z,94.43
2023-05-06T02:02:53.916Z,94.98
2023-05-06T02:05:57.074Z,94.76
2023-05-06T02:09:01.941Z,94.62
2023-05-06T02:12:06.226Z,94.75
2023-05-06T02:15:09.690Z,94.21
2023-05-06T02:18:13.315Z,94.25
2023-05-06T02:21:16.263Z,94.19
2023-05-06T02:24:19.261Z,94.36
2023-05-06T02:27:22.006Z,94.79
2023-05-06T02:30:24.857Z,94.82
2023-05-06T02:33:27.801Z,94.60
2023-05-06T02:36:30.640Z,94.56
2023-05-06T02:39:33.630Z,95.82
2023-05-06T02:42:37.401Z,97.16
2023-05-06T02:45:40.246Z,97.34
2023-05-06T02:48:43.468Z,99.18
2023-05-06T02:51:46.615Z,99.65
2023-05-06T02:54:49.372Z,99.68
2023-05-06T02:57:52.094Z,99.35
2023-05-06T03:00:55.096Z,99.47
2023-05-06T03:03:58.562Z,99.12
2023-05-06T03:07:01.354Z,99.46
2023-05-06T03:10:05.162Z,99.27
2023-05-06T03:13:10.732Z,99.18
2023-05-06T03:16:17.427Z,99.66
2023-05-06T03:19:24.798Z,99.70
2023-05-06T03:22:27.611Z,99.98
2023-05-06T03:25:30.865Z,100.00
2023-05-06T03:28:33.814Z,100.00
2023-05-06T03:31:38.886Z,100.00
2023-05-06T03:34:41.954Z,100.00
2023-05-06T03:37:47.622Z,100.00
2023-05-06T03:40:51.293Z,100.00
2023-05-06T03:43:55.866Z,100.00
2023-05-06T03:47:02.172Z,100.00
2023-05-06T03:50:07.292Z,100.00
2023-05-06T03:53:11.614Z,99.61
2023-05-06T03:56:18.379Z,99.14
2023-05-06T03:59:24.347Z,98.98
2023-05-06T04:02:29.545Z,98.82
2023-05-06T04:05:33.910Z,98.08
2023-05-06T04:08:37.657Z,98.09
2023-05-06T04:11:41.053Z,97.60
2023-05-06T04:14:46.536Z,96.91
2023-05-06T04:17:49.599Z,96.70
2023-05-06T04:20:53.664Z,95.59
2023-05-06T04:23:56.687Z,94.37
2023-05-06T04:27:07.777Z,93.09
2023-05-06T04:30:11.317Z,90.95
2023-05-06T04:33:14.982Z,88.88
2023-05-06T04:36:19.059Z,87.00
2023-05-06T04:39:58.104Z,85.21
2023-05-06T04:43:01.441Z,82.41
2023-05-06T04:46:05.253Z,81.30
2023-05-06T04:49:12.456Z,79.18
2023-05-06T04:52:15.712Z,77.81
2023-05-06T04:55:19.251Z,76.94
2023-05-06T04:58:26.934Z,75.07
2023-05-06T05:01:31.553Z,74.63
2023-05-06T05:04:35.117Z,73.04
2023-05-06T05:07:37.856Z,70.49
2023-05-06T05:10:43.857Z,69.77
2023-05-06T05:13:50.228Z,70.26
2023-05-06T05:16:53.280Z,70.56
2023-05-06T05:19:56.312Z,71.49
2023-05-06T05:22:59.069Z,71.55
2023-05-06T05:26:02.106Z,71.64
2023-05-06T05:29:05.021Z,72.61
2023-05-06T05:32:08.812Z,72.07
2023-05-06T05:35:12.363Z,70.94
2023-05-06T05:38:17.569Z,69.88
2023-05-06T05:41:20.965Z,69.79
2023-05-06T05:44:24.557Z,69.48
2023-05-06T05:47:28.110Z,68.78
2023-05-06T05:50:31.230Z,68.27
2023-05-06T05:53:34.684Z,65.73
2023-05-06T05:56:38.745Z,65.23
2023-05-06T05:59:41.696Z,64.18
2023-05-06T06:02:45.041Z,63.54
2023-05-06T06:05:52.985Z,64.20
2023-05-06T06:12:16.213Z,63.29
2023-05-06T06:15:19.081Z,63.81
2023-05-06T06:18:22.825Z,62.34
2023-05-06T06:21:26.049Z,62.81
2023-05-06T06:24:30.008Z,61.96
2023-05-06T06:27:36.905Z,61.52
2023-05-06T06:30:40.935Z,62.20
2023-05-06T06:33:44.230Z,61.19
2023-05-06T06:36:54.277Z,59.98
2023-05-06T06:39:57.190Z,57.50
2023-05-06T06:42:59.988Z,58.69
2023-05-06T06:46:23.707Z,56.41
2023-05-06T06:49:27.558Z,54.41
2023-05-06T06:52:30.604Z,53.97
2023-05-06T06:55:33.560Z,53.83
2023-05-06T06:58:36.450Z,52.48
2023-05-06T07:01:39.263Z,51.68
2023-05-06T07:04:42.236Z,48.42
2023-05-06T07:07:46.591Z,45.43
2023-05-06T07:10:49.350Z,44.50
2023-05-06T07:13:52.557Z,41.08
2023-05-06T07:16:56.155Z,39.89
2023-05-06T07:19:59.164Z,39.86
2023-05-06T07:23:10.929Z,39.65
2023-05-06T07:26:13.777Z,36.74
2023-05-06T07:29:31.179Z,38.08
2023-05-06T07:32:37.382Z,36.88
2023-05-06T07:35:40.238Z,35.83
2023-05-06T07:38:43.066Z,34.71
2023-05-06T07:41:46.051Z,32.44
2023-05-06T07:44:49.063Z,32.99
2023-05-06T07:47:52.115Z,30.88
2023-05-06T07:50:55.596Z,29.99
2023-05-06T07:53:58.341Z,29.33
2023-05-06T07:57:05.013Z,30.10
2023-05-06T08:00:18.095Z,27.66
2023-05-06T08:03:22.387Z,28.69
2023-05-06T08:06:25.499Z,28.07
2023-05-06T08:09:28.514Z,28.40
2023-05-06T08:12:40.971Z,26.67
2023-05-06T08:16:21.240Z,25.52
2023-05-06T08:19:24.849Z,26.71
2023-05-06T08:22:27.686Z,25.26
2023-05-06T08:25:30.960Z,26.36
2023-05-06T08:28:33.880Z,25.18
2023-05-06T08:31:36.725Z,23.28
2023-05-06T08:34:39.580Z,23.56
2023-05-06T08:37:42.955Z,24.31
2023-05-06T08:40:45.863Z,26.79
2023-05-06T08:43:50.512Z,30.28
2023-05-06T08:46:53.499Z,27.35
2023-05-06T08:49:56.530Z,28.11
2023-05-06T08:53:01.315Z,26.72
2023-05-06T08:56:08.831Z,25.37
2023-05-06T08:59:13.837Z,27.33
2023-05-06T09:02:16.976Z,25.40
2023-05-06T09:05:19.911Z,27.12
2023-05-06T09:08:23.136Z,28.05
2023-05-06T09:11:29.795Z,26.53
2023-05-06T09:14:32.520Z,24.29
2023-05-06T09:17:36.722Z,26.97
2023-05-06T09:20:47.562Z,23.99
2023-05-06T09:23:50.447Z,25.31
2023-05-06T09:26:57.038Z,25.50
2023-05-06T09:30:12.277Z,26.55
2023-05-06T09:33:15.441Z,27.12
2023-05-06T09:36:18.689Z,25.01
2023-05-06T09:39:26.259Z,25.55
2023-05-06T09:42:31.092Z,29.92
2023-05-06T09:45:34.533Z,26.70
2023-05-06T09:48:37.944Z,28.59
2023-05-06T09:51:48.041Z,28.60
2023-05-06T09:54:52.033Z,25.01
2023-05-06T09:57:55.614Z,24.33
2023-05-06T10:00:59.094Z,24.54
2023-05-06T10:04:06.247Z,23.47
2023-05-06T10:07:12.602Z,22.22
2023-05-06T10:10:16.808Z,21.32
2023-05-06T10:13:21.646Z,24.07
2023-05-06T10:16:24.654Z,23.63
2023-05-06T10:19:28.630Z,24.93
2023-05-06T10:22:52.477Z,25.04
2023-05-06T10:26:07.052Z,25.35
2023-05-06T10:29:11.487Z,25.65
2023-05-06T10:32:14.604Z,23.11
2023-05-06T10:35:38.587Z,27.60
2023-05-06T10:38:43.784Z,24.82
2023-05-06T10:41:48.205Z,26.88
2023-05-06T10:44:57.921Z,28.46
2023-05-06T10:48:03.882Z,27.22
2023-05-06T10:51:26.315Z,27.59
2023-05-06T10:54:29.215Z,26.73
2023-05-06T10:57:41.462Z,24.92
2023-05-06T11:00:55.631Z,22.83
2023-05-06T11:04:02.426Z,21.64
2023-05-06T11:07:16.087Z,22.16
2023-05-06T11:10:33.094Z,20.69
2023-05-06T11:13:35.939Z,19.62
2023-05-06T11:16:49.463Z,19.13
2023-05-06T11:20:21.929Z,19.31
2023-05-06T11:23:46.838Z,18.79
2023-05-06T11:26:50.763Z,18.15
2023-05-06T11:29:53.525Z,19.15
2023-05-06T11:32:58.981Z,18.97
2023-05-06T11:36:02.793Z,18.44
2023-05-06T11:39:08.368Z,25.33
2023-05-06T11:42:11.954Z,27.70
2023-05-06T11:45:14.813Z,29.08
2023-05-06T11:48:18.337Z,26.32
2023-05-06T11:51:24.272Z,22.67
2023-05-06T11:54:27.642Z,20.19
2023-05-06T11:57:30.519Z,23.48
2023-05-06T12:00:33.479Z,19.19
2023-05-06T12:03:36.851Z,20.53
2023-05-06T12:06:40.287Z,18.81
2023-05-06T12:09:47.954Z,17.54
2023-05-06T12:12:51.763Z,19.56
2023-05-06T12:15:56.040Z,24.64
2023-05-06T12:18:58.868Z,22.68
2023-05-06T12:22:29.369Z,20.09
2023-05-06T12:25:37.300Z,23.63
2023-05-06T12:28:42.865Z,25.69
2023-05-06T12:31:49.428Z,29.56
2023-05-06T12:34:52.335Z,31.76
2023-05-06T12:37:56.160Z,32.60
2023-05-06T12:40:58.981Z,33.39
2023-05-06T12:44:01.804Z,32.09
2023-05-06T12:47:09.503Z,34.90
2023-05-06T12:50:12.699Z,35.00
2023-05-06T12:53:31.451Z,34.38
2023-05-06T12:56:34.269Z,35.42
2023-05-06T12:59:37.607Z,32.55
2023-05-06T13:02:41.583Z,30.21
2023-05-06T13:05:44.494Z,29.20
2023-05-06T13:08:47.563Z,32.14
2023-05-06T13:11:50.683Z,31.36
2023-05-06T13:14:53.406Z,32.71
2023-05-06T13:17:57.411Z,33.87
2023-05-06T13:21:00.921Z,33.02
2023-05-06T13:24:04.667Z,31.43
2023-05-06T13:27:07.580Z,27.60
2023-05-06T13:30:10.920Z,29.26
2023-05-06T13:33:14.497Z,30.39
2023-05-06T13:36:17.444Z,32.11
2023-05-06T13:39:21.812Z,31.93
2023-05-06T13:42:24.696Z,31.44
2023-05-06T13:45:27.906Z,30.48
2023-05-06T13:48:30.772Z,31.81
2023-05-06T13:51:34.735Z,32.81
2023-05-06T13:54:37.846Z,33.13
2023-05-06T13:57:40.770Z,32.90
2023-05-06T14:00:43.677Z,32.90
2023-05-06T14:03:46.804Z,33.73
2023-05-06T14:06:49.622Z,34.00
2023-05-06T14:09:52.671Z,33.83
2023-05-06T14:12:55.513Z,33.75
2023-05-06T14:15:59.559Z,31.96
2023-05-06T14:19:02.526Z,33.08
2023-05-06T14:22:05.319Z,32.01
2023-05-06T14:25:09.718Z,32.91
2023-05-06T14:28:13.133Z,33.79
2023-05-06T14:31:16.052Z,34.71
2023-05-06T14:34:18.852Z,34.89
2023-05-06T14:37:21.742Z,35.78
2023-05-06T14:40:24.611Z,35.74
2023-05-06T14:43:27.367Z,34.93
2023-05-06T14:46:30.127Z,35.15
2023-05-06T14:49:32.913Z,34.55
2023-05-06T14:52:39.602Z,35.25
2023-05-06T14:55:42.653Z,36.00
2023-05-06T14:58:46.276Z,35.35
2023-05-06T15:01:49.166Z,36.00
2023-05-06T15:04:52.948Z,35.58
2023-05-06T15:07:55.786Z,35.17
2023-05-06T15:10:58.674Z,34.61
2023-05-06T15:14:01.516Z,34.26
2023-05-06T15:17:04.742Z,34.03
2023-05-06T15:20:08.954Z,34.39
2023-05-06T15:23:11.866Z,34.39
2023-05-06T15:26:14.774Z,35.41
2023-05-06T15:29:20.589Z,36.30
2023-05-06T15:32:23.621Z,35.18
2023-05-06T15:35:26.414Z,35.89
2023-05-06T15:38:29.506Z,34.39
2023-05-06T15:41:33.724Z,34.02
2023-05-06T15:44:37.546Z,33.68
2023-05-06T15:47:40.589Z,33.72
2023-05-06T15:50:43.472Z,33.63
2023-05-06T15:53:47.645Z,33.60
2023-05-06T15:56:50.426Z,33.18
2023-05-06T15:59:53.208Z,33.31
2023-05-06T16:02:56.081Z,32.93
2023-05-06T16:05:59.758Z,33.21
2023-05-06T16:09:02.732Z,32.80
2023-05-06T16:12:06.287Z,33.77
2023-05-06T16:15:09.824Z,33.68
2023-05-06T16:18:12.924Z,33.48
2023-05-06T16:21:15.784Z,32.51
2023-05-06T16:24:18.699Z,33.51
2023-05-06T16:27:21.645Z,33.62
2023-05-06T16:30:24.550Z,34.21
2023-05-06T16:33:27.389Z,35.20
2023-05-06T16:36:30.229Z,35.75
2023-05-06T16:39:33.155Z,36.12
2023-05-06T16:42:36.161Z,36.44
2023-05-06T16:45:39.951Z,35.18
2023-05-06T16:48:42.903Z,36.01
2023-05-06T16:51:45.919Z,36.47
2023-05-06T16:54:48.930Z,36.10
2023-05-06T16:57:51.757Z,36.63
2023-05-06T17:00:54.575Z,36.59
2023-05-06T17:03:57.482Z,37.26
2023-05-06T17:07:00.518Z,37.06
2023-05-06T17:10:03.756Z,37.14
2023-05-06T17:13:06.713Z,37.22
2023-05-06T17:16:09.660Z,37.84
2023-05-06T17:19:12.636Z,37.09
2023-05-06T17:22:16.268Z,37.96
2023-05-06T17:25:19.123Z,38.71
2023-05-06T17:28:22.047Z,40.05
2023-05-06T17:31:25.068Z,40.70
2023-05-06T17:34:27.885Z,41.18
2023-05-06T17:37:31.785Z,41.79
2023-05-06T17:40:34.661Z,43.79
2023-05-06T17:43:37.618Z,44.18
2023-05-06T17:46:40.407Z,44.86
2023-05-06T17:49:43.298Z,45.91
2023-05-06T17:52:48.973Z,46.87
2023-05-06T17:55:51.731Z,47.54
2023-05-06T17:58:54.501Z,48.20
2023-05-06T18:01:57.456Z,49.04
2023-05-06T18:05:00.456Z,49.44
2023-05-06T18:08:04.965Z,50.66
2023-05-06T18:11:07.810Z,51.22
2023-05-06T18:14:11.269Z,52.07
2023-05-06T18:17:14.154Z,53.12
2023-05-06T18:20:17.173Z,54.24
2023-05-06T18:23:19.994Z,54.28
2023-05-06T18:26:39.845Z,54.71
2023-05-06T18:29:45.882Z,56.33
2023-05-06T18:32:50.971Z,56.82
2023-05-06T18:35:54.698Z,57.26
2023-05-06T18:38:57.511Z,57.67
2023-05-06T18:42:00.806Z,58.26
2023-05-06T18:45:05.232Z,58.07
2023-05-06T18:48:08.044Z,58.74
2023-05-06T18:51:16.008Z,59.31
2023-05-06T18:54:19.248Z,59.40
2023-05-06T18:57:22.688Z,59.23
2023-05-06T19:00:26.577Z,59.31
2023-05-06T19:03:31.638Z,59.52
2023-05-06T19:06:34.790Z,60.41
2023-05-06T19:09:37.641Z,60.50
2023-05-06T19:12:41.708Z,61.33
2023-05-06T19:15:45.658Z,61.22
2023-05-06T19:18:48.656Z,61.74
2023-05-06T19:21:51.495Z,62.06
2023-05-06T19:24:54.550Z,62.48
2023-05-06T19:27:57.541Z,63.01
2023-05-06T19:31:00.817Z,63.52
2023-05-06T19:34:03.965Z,63.75
2023-05-06T19:37:06.927Z,64.10
2023-05-06T19:40:10.287Z,64.51
2023-05-06T19:43:13.181Z,64.87
2023-05-06T19:46:16.534Z,65.54
2023-05-06T19:49:19.363Z,66.10
2023-05-06T19:52:25.315Z,66.65
2023-05-06T19:55:28.144Z,66.72
2023-05-06T19:58:31.206Z,67.22
2023-05-06T20:01:34.343Z,68.50
2023-05-06T20:04:37.873Z,68.92
2023-05-06T20:07:41.557Z,70.49
2023-05-06T20:10:44.501Z,70.41
2023-05-06T20:13:47.531Z,70.74
2023-05-06T20:16:50.643Z,71.62
2023-05-06T20:19:57.386Z,71.77
2023-05-06T20:23:03.477Z,72.16
2023-05-06T20:26:06.395Z,71.87
2023-05-06T20:29:09.683Z,71.98
2023-05-06T20:32:13.179Z,72.96
2023-05-06T20:35:16.912Z,73.09
2023-05-06T20:38:20.787Z,73.28
2023-05-06T20:41:23.831Z,71.77
2023-05-06T20:44:27.020Z,71.97
2023-05-06T20:47:30.103Z,72.35
2023-05-06T20:50:33.088Z,72.31
2023-05-06T20:53:36.037Z,71.83
2023-05-06T20:56:38.913Z,71.56
2023-05-06T20:59:41.980Z,75.38
2023-05-06T21:03:10.107Z,75.99
2023-05-06T21:06:17.990Z,77.06
2023-05-06T21:09:21.527Z,77.95
2023-05-06T21:12:25.014Z,78.83
2023-05-06T21:15:27.866Z,79.31
2023-05-06T21:18:31.061Z,80.57
2023-05-06T21:21:34.157Z,81.09
2023-05-06T21:24:37.016Z,81.45
2023-05-06T21:27:39.875Z,81.13
2023-05-06T21:30:42.835Z,81.35
2023-05-06T21:33:46.647Z,81.50
2023-05-06T21:36:49.508Z,81.72
2023-05-06T21:39:54.254Z,82.06
2023-05-06T21:42:57.326Z,81.91
2023-05-06T21:46:03.720Z,82.16
2023-05-06T21:49:07.043Z,82.37
2023-05-06T21:52:10.082Z,82.51
2023-05-06T21:55:13.483Z,82.57
2023-05-06T21:58:16.683Z,82.57
2023-05-06T22:01:19.832Z,83.41
2023-05-06T22:04:23.022Z,83.60
2023-05-06T22:07:26.171Z,83.38
2023-05-06T22:10:29.481Z,83.43
2023-05-06T22:13:32.835Z,83.17
2023-05-06T22:16:38.584Z,83.08
2023-05-06T22:19:42.076Z,82.78
2023-05-06T22:22:45.427Z,82.90
2023-05-06T22:25:48.442Z,83.08
2023-05-06T22:28:51.333Z,83.15
2023-05-06T22:31:54.323Z,83.57
2023-05-06T22:34:57.710Z,83.96
2023-05-06T22:38:00.753Z,83.63
2023-05-06T22:41:03.816Z,83.86
2023-05-06T22:44:06.837Z,84.31
2023-05-06T22:47:09.706Z,84.24
2023-05-06T22:50:15.470Z,84.25
2023-05-06T22:53:18.522Z,83.81
2023-05-06T22:56:21.731Z,82.86
2023-05-06T22:59:24.825Z,82.18
2023-05-06T23:02:28.841Z,82.39
2023-05-06T23:05:32.117Z,82.46
2023-05-06T23:08:35.137Z,82.76
2023-05-06T23:11:38.141Z,83.15
2023-05-06T23:14:41.193Z,82.77
2023-05-06T23:17:44.244Z,82.59
2023-05-06T23:20:47.274Z,82.50
2023-05-06T23:23:50.267Z,82.15
2023-05-06T23:26:53.288Z,81.65
2023-05-06T23:29:56.277Z,81.87
2023-05-06T23:32:59.320Z,81.88
2023-05-06T23:36:02.803Z,82.14
2023-05-06T23:39:05.789Z,82.59
2023-05-06T23:42:08.762Z,82.93
2023-05-06T23:45:12.365Z,82.55
2023-05-06T23:48:15.673Z,82.90
2023-05-06T23:51:18.724Z,82.60
2023-05-06T23:54:21.793Z,82.14
2023-05-06T23:57:25.190Z,82.11
